Dyersburg, Tennessee
Current Conditions -  °F | °C
As of 7:35 AM on Saturday 25 Oct 2014 (Local Time) from KDYR Reporting Station
Clear Clear  
Wind Chill: 52°   Ceiling: Unl
Heat Index: 52°   Visibility: 5mi
Dew Point: 41°   Wind: 0mph
Humidity: 67%   Direction: NA
Pressure: 30.09"   Gusts: NA
Location:  36.03°N, 89.38°W
Report Text: KDYR 251235Z 00000KT 5SM CLR 11/05 A3009 RMK AO1
Loading
Personal Weather Stations






























Interactive Weather Map New forecast layout! Learn more

10-Day Weather Forecast

Advertisements
Track Severe Weather on mobile